Fremont, MI

6:16 AM EDT on August 20, 2019 (GMT -0400)
Fremont

Weather History for KFFX - May, 2019

Change the Weather History Date:

Wednesday, May 15, 2019

  Actual Average (KMKG) Record (KMKG)
Temperature  
Mean Temperature 56 °F -  
Max Temperature 72 °F 66 °F 88 °F (1998)
Min Temperature 41 °F 46 °F 31 °F (1920)
Degree Days  
Heating Degree Days 8    
Growing Degree Days 6 (Base 50)    
Moisture  
Dew Point 41 °F    
Average Humidity 55    
Maximum Humidity 88    
Minimum Humidity 28    
Precipitation  
Precipitation 0.00 in - - ()
Sea Level Pressure  
Sea Level Pressure 29.93 in    
Wind  
Wind Speed 3 mph ()    
Max Wind Speed 14 mph    
Max Gust Speed 21 mph    
Visibility 10.0 miles    
Events      
Averages and records for this station are not official NWS values.
T = Trace of Precipitation, MM = Missing Value Source: Averaged Metar Reports

Daily Weather History Graph

Daily Weather History Graph

Search for Another Location

Airport or City:

Astronomy

May. 15, 2019 Rise Set
Actual Time 6:19 AM EDT 9:01 PM EDT
Civil Twilight 5:46 AM EDT 9:34 PM EDT
Nautical Twilight 5:05 AM EDT 10:16 PM EDT
Astronomical Twilight 4:17 AM EDT 11:04 PM EDT
Moon 5:22 PM EDT (5/15) 4:54 AM EDT (5/15)
Length of Visible Light 15h 47m
Length of Day
14h 41m
Waxing Gibbous, 87% of the Moon is Illuminated
May 15
Waxing Gibbous
May 18
Full
May 26
Last Quarter
Jun 3
New
Jun 10
First Quarter

Hourly Weather History & Observations

Time (EDT) Temp. Dew Point Humidity Pressure Visibility Wind Dir Wind Speed Gust Speed Precip Events Conditions
12:15 AM 46.8 °F 32.5 °F 58% 29.97 in 10.0 mi Calm Calm - N/A   Clear
12:36 AM 45.5 °F 33.3 °F 62% 29.97 in 10.0 mi Calm Calm - N/A   Clear
12:56 AM 45.5 °F 33.1 °F 62% 29.97 in 10.0 mi Calm Calm - N/A   Clear
1:15 AM 44.2 °F 32.9 °F 64% 29.96 in 10.0 mi Calm Calm - N/A   Clear
1:35 AM 44.8 °F 32.0 °F 61% 29.96 in 10.0 mi Calm Calm - N/A   Clear
1:56 AM 43.9 °F 32.0 °F 63% 29.95 in 10.0 mi Calm Calm - N/A   Clear
2:15 AM 43.7 °F 34.7 °F 71% 29.95 in 10.0 mi Calm Calm - N/A   Clear
2:35 AM 43.3 °F 34.9 °F 72% 29.95 in 7.0 mi Calm Calm - N/A   Clear
2:56 AM 43.2 °F 34.7 °F 72% 29.94 in 10.0 mi Calm Calm - N/A   Clear
3:15 AM 42.8 °F 36.1 °F 77% 29.94 in 10.0 mi Calm Calm - N/A   Clear
3:35 AM 42.4 °F 36.0 °F 78% 29.94 in 10.0 mi Calm Calm - N/A   Clear
3:55 AM 41.9 °F 35.1 °F 77% 29.94 in 10.0 mi Calm Calm - N/A   Clear
4:16 AM 42.1 °F 35.6 °F 78% 29.94 in 10.0 mi Calm Calm - N/A   Mostly Cloudy
4:36 AM 41.4 °F 37.9 °F 88% 29.94 in 10.0 mi Calm Calm - N/A   Overcast
4:55 AM 43.0 °F 39.6 °F 88% 29.94 in 10.0 mi Calm Calm - N/A   Overcast
5:15 AM 44.4 °F 40.6 °F 87% 29.94 in 10.0 mi Calm Calm - N/A   Overcast
5:36 AM 45.7 °F 39.2 °F 78% 29.93 in 10.0 mi Calm Calm - N/A   Overcast
5:55 AM 46.4 °F 39.7 °F 78% 29.93 in 10.0 mi Calm Calm - N/A   Overcast
6:15 AM 46.4 °F 40.3 °F 79% 29.94 in 10.0 mi Calm Calm - N/A   Overcast
6:35 AM 46.6 °F 41.5 °F 83% 29.94 in 10.0 mi Calm Calm - N/A   Overcast
6:56 AM 47.3 °F 40.8 °F 78% 29.94 in 10.0 mi Calm Calm - N/A   Overcast
7:15 AM 48.2 °F 40.3 °F 74% 29.95 in 10.0 mi Calm Calm - N/A   Overcast
7:35 AM 48.2 °F 41.2 °F 77% 29.95 in 10.0 mi Calm Calm - N/A   Overcast
7:56 AM 50.5 °F 41.5 °F 71% 29.95 in 10.0 mi Calm Calm - N/A   Overcast
8:16 AM 51.3 °F 40.8 °F 67% 29.95 in 10.0 mi SW 3.5 mph - N/A   Overcast
8:35 AM 52.7 °F 40.3 °F 63% 29.95 in 10.0 mi SW 3.5 mph - N/A   Mostly Cloudy
8:56 AM 55.6 °F 41.9 °F 60% 29.95 in 10.0 mi Calm Calm - N/A   Clear
9:16 AM 58.5 °F 43.2 °F 57% 29.95 in 10.0 mi West 5.8 mph - N/A   Scattered Clouds
9:35 AM 61.2 °F 44.6 °F 54% 29.94 in 10.0 mi WSW 6.9 mph - N/A   Scattered Clouds
9:55 AM 63.5 °F 45.3 °F 52% 29.94 in 10.0 mi West 5.8 mph - N/A   Scattered Clouds
10:16 AM 65.3 °F 45.3 °F 48% 29.94 in 10.0 mi West 6.9 mph - N/A   Scattered Clouds
10:35 AM 67.3 °F 45.9 °F 46% 29.93 in 10.0 mi West 11.5 mph - N/A   Clear
10:55 AM 67.3 °F 46.6 °F 47% 29.94 in 10.0 mi WNW 12.7 mph - N/A   Clear
11:16 AM 68.9 °F 47.5 °F 46% 29.94 in 10.0 mi WNW 9.2 mph - N/A   Clear
11:36 AM 69.4 °F 46.8 °F 44% 29.93 in 10.0 mi West 9.2 mph - N/A   Scattered Clouds
11:55 AM 70.0 °F 47.5 °F 45% 29.93 in 10.0 mi West 8.1 mph - N/A   Scattered Clouds
12:15 PM 69.6 °F 46.0 °F 43% 29.93 in 10.0 mi North 9.2 mph - N/A   Scattered Clouds
12:36 PM 70.0 °F 45.3 °F 41% 29.93 in 10.0 mi NNW 8.1 mph - N/A   Scattered Clouds
12:55 PM 70.2 °F 44.6 °F 40% 29.92 in 10.0 mi NNW 4.6 mph - N/A   Mostly Cloudy
1:15 PM 71.1 °F 44.2 °F 38% 29.92 in 10.0 mi North 8.1 mph - N/A   Overcast
1:36 PM 69.6 °F 45.0 °F 41% 29.92 in 10.0 mi NW 9.2 mph - N/A   Overcast
1:55 PM 69.8 °F 44.1 °F 39% 29.92 in 10.0 mi WNW 8.1 mph - N/A   Overcast
2:15 PM 70.5 °F 45.0 °F 40% 29.92 in 10.0 mi West 10.4 mph - N/A   Mostly Cloudy
2:36 PM 72.1 °F 45.9 °F 39% 29.92 in 10.0 mi WNW 12.7 mph 16.1 mph N/A   Scattered Clouds
2:55 PM 72.3 °F 42.8 °F 35% 29.91 in 10.0 mi WNW 10.4 mph - N/A   Clear
3:15 PM 72.3 °F 43.9 °F 36% 29.91 in 10.0 mi West 10.4 mph 17.3 mph N/A   Scattered Clouds
3:36 PM 72.3 °F 42.8 °F 35% 29.91 in 10.0 mi West 9.2 mph 17.3 mph N/A   Clear
3:56 PM 72.1 °F 42.8 °F 35% 29.90 in 10.0 mi West 13.8 mph 19.6 mph N/A   Clear
4:16 PM 71.8 °F 43.0 °F 35% 29.90 in 10.0 mi West 12.7 mph 20.7 mph N/A   Clear
4:35 PM 71.4 °F 42.4 °F 35% 29.90 in 10.0 mi West 13.8 mph 17.3 mph N/A   Clear
4:55 PM 71.4 °F 41.0 °F 33% 29.90 in 10.0 mi West 13.8 mph 18.4 mph N/A   Clear
5:16 PM 71.6 °F 40.6 °F 33% 29.90 in 10.0 mi West 11.5 mph 18.4 mph N/A   Clear
5:36 PM 71.6 °F 39.2 °F 31% 29.91 in 10.0 mi West 11.5 mph 19.6 mph N/A   Clear
5:55 PM 71.6 °F 39.0 °F 31% 29.91 in 10.0 mi West 9.2 mph - N/A   Clear
6:15 PM 70.9 °F 36.1 °F 28% 29.90 in 10.0 mi NW 9.2 mph - N/A   Clear
6:36 PM 71.2 °F 36.5 °F 28% 29.90 in 10.0 mi West 9.2 mph - N/A   Clear
6:55 PM 70.9 °F 36.0 °F 28% 29.90 in 10.0 mi NW 6.9 mph - N/A   Clear
7:16 PM 70.0 °F 39.0 °F 32% 29.90 in 10.0 mi West 6.9 mph - N/A   Clear
7:36 PM 68.9 °F 37.2 °F 31% 29.91 in 10.0 mi West 6.9 mph - N/A   Clear
7:56 PM 66.6 °F 39.6 °F 37% 29.91 in 10.0 mi West 6.9 mph - N/A   Clear
8:15 PM 66.2 °F 40.1 °F 38% 29.92 in 10.0 mi West 5.8 mph - N/A   Clear
8:35 PM 64.9 °F 42.6 °F 44% 29.92 in 10.0 mi WNW 4.6 mph - N/A   Clear
8:56 PM 61.3 °F 44.2 °F 53% 29.92 in 10.0 mi West 5.8 mph - N/A   Clear
9:15 PM 61.2 °F 43.2 °F 52% 29.92 in 10.0 mi West 6.9 mph - N/A   Clear
9:35 PM 59.5 °F 43.7 °F 56% 29.92 in 10.0 mi West 4.6 mph - N/A   Clear
9:56 PM 57.0 °F 44.6 °F 63% 29.93 in 10.0 mi WNW 5.8 mph - N/A   Clear
10:16 PM 56.3 °F 44.8 °F 65% 29.93 in 10.0 mi Calm Calm - N/A   Clear
10:35 PM 54.7 °F 44.8 °F 69% 29.93 in 10.0 mi Calm Calm - N/A   Clear
10:55 PM 54.1 °F 45.0 °F 71% 29.94 in 10.0 mi Calm Calm - N/A   Clear
11:16 PM 52.3 °F 44.2 °F 74% 29.93 in 10.0 mi Calm Calm - N/A   Clear
11:35 PM 51.8 °F 45.0 °F 77% 29.93 in 10.0 mi Calm Calm - N/A   Clear
11:55 PM 51.8 °F 45.5 °F 79% 29.93 in 10.0 mi Calm Calm - N/A   Clear